Time;durP1;ratioP1;P1;durP2;ratioP2;P2;SDS_P1;SDS_P2;PMS_P1;PMS_P2;Temp;Humidity;BMP_temperature;BMP_pressure;BME280_temperature;BME280_humidity;BME280_pressure;Samples;Min_cycle;Max_cycle;Signal;HPM_P1;HPM_P2
2024/01/23 00:01:53;;;;;;;17.00;3.27;;;9.00;99.90;;;;;;4971080;28;21058;-69
2024/01/23 00:04:20;;;;;;;2.80;1.70;;;9.00;99.90;;;;;;4967051;28;20553;-68
2024/01/23 00:06:47;;;;;;;10.47;2.20;;;8.90;99.90;;;;;;4974489;28;20525;-67
2024/01/23 00:09:14;;;;;;;4.83;2.53;;;9.00;99.90;;;;;;4979163;28;20462;-68
2024/01/23 00:11:42;;;;;;;17.43;1.67;;;9.00;99.90;;;;;;4979279;28;20952;-69
2024/01/23 00:14:09;;;;;;;6.97;2.10;;;9.00;99.90;;;;;;4969745;28;20976;-68
2024/01/23 00:16:36;;;;;;;3.73;1.77;;;9.10;99.90;;;;;;4973704;28;20474;-68
2024/01/23 00:19:02;;;;;;;3.07;1.60;;;9.00;99.90;;;;;;4973015;28;20979;-68
2024/01/23 00:21:29;;;;;;;8.50;1.97;;;9.10;99.90;;;;;;4979105;28;20464;-68
2024/01/23 00:23:56;;;;;;;8.93;1.93;;;9.00;99.90;;;;;;4973957;28;20470;-69
2024/01/23 00:26:23;;;;;;;3.20;2.90;;;8.90;99.90;;;;;;4982477;28;20486;-68
2024/01/23 00:28:51;;;;;;;10.73;2.60;;;8.80;99.90;;;;;;4980837;28;20475;-69
2024/01/23 00:31:18;;;;;;;2.67;2.47;;;8.90;99.90;;;;;;4975949;28;20455;-68
2024/01/23 00:33:44;;;;;;;7.47;2.50;;;8.90;99.90;;;;;;4970917;28;20458;-68
2024/01/23 00:36:11;;;;;;;4.97;1.37;;;8.90;99.90;;;;;;4972591;28;20489;-68
2024/01/23 00:38:38;;;;;;;12.53;1.90;;;8.90;99.90;;;;;;4971041;28;20462;-68
2024/01/23 00:41:05;;;;;;;1.70;1.13;;;8.80;99.90;;;;;;4975564;28;20494;-68
2024/01/23 00:43:31;;;;;;;4.00;1.63;;;8.70;99.90;;;;;;4973964;28;20433;-68
2024/01/23 00:45:59;;;;;;;5.90;1.93;;;8.60;99.90;;;;;;4968961;28;20855;-69
2024/01/23 00:48:26;;;;;;;2.10;1.60;;;8.40;99.90;;;;;;4974617;28;20476;-68
2024/01/23 00:50:53;;;;;;;11.93;1.93;;;8.40;99.90;;;;;;4976367;28;20907;-68
2024/01/23 00:53:21;;;;;;;6.07;2.27;;;8.40;99.90;;;;;;4965730;28;20458;-68
2024/01/23 00:55:47;;;;;;;4.23;2.00;;;8.40;99.90;;;;;;4979720;28;20485;-68
2024/01/23 00:58:15;;;;;;;3.10;1.83;;;8.40;99.90;;;;;;4977945;28;20485;-69
2024/01/23 01:00:44;;;;;;;1.53;1.43;;;8.40;99.90;;;;;;4976944;28;20834;-68
2024/01/23 01:03:12;;;;;;;3.53;1.70;;;8.40;99.90;;;;;;4977957;28;20743;-68
2024/01/23 01:05:39;;;;;;;1.80;1.40;;;8.50;99.90;;;;;;4981495;28;20490;-68
2024/01/23 01:08:06;;;;;;;6.63;2.03;;;8.40;99.90;;;;;;4977985;28;20458;-69
2024/01/23 01:10:33;;;;;;;1.37;1.20;;;8.40;99.90;;;;;;4979786;28;20939;-69
2024/01/23 01:13:00;;;;;;;3.27;2.03;;;8.50;99.90;;;;;;4975835;28;20425;-69
2024/01/23 01:15:26;;;;;;;1.30;1.20;;;8.60;99.90;;;;;;4976777;28;20500;-68
2024/01/23 01:17:53;;;;;;;9.60;1.57;;;8.60;99.90;;;;;;4981263;28;22382;-68
2024/01/23 01:20:21;;;;;;;4.57;3.03;;;8.60;99.90;;;;;;4973471;28;20487;-69
2024/01/23 01:22:48;;;;;;;4.93;1.37;;;8.70;99.90;;;;;;4955828;28;21067;-68
2024/01/23 01:25:15;;;;;;;3.17;1.60;;;8.60;99.90;;;;;;4970162;28;20820;-68
2024/01/23 01:27:42;;;;;;;6.73;2.40;;;8.60;99.90;;;;;;4956520;28;20472;-68
2024/01/23 01:30:09;;;;;;;7.33;2.73;;;8.60;99.90;;;;;;4977013;28;20538;-69
2024/01/23 01:32:36;;;;;;;10.93;1.30;;;8.60;99.90;;;;;;4974896;28;20458;-69
2024/01/23 01:35:03;;;;;;;2.00;1.60;;;8.40;99.90;;;;;;4979035;28;20482;-68
2024/01/23 01:37:32;;;;;;;1.73;1.10;;;8.40;99.90;;;;;;4972366;28;20454;-68
2024/01/23 01:39:58;;;;;;;1.97;1.20;;;8.40;99.90;;;;;;4970972;28;20430;-68
2024/01/23 01:42:25;;;;;;;5.23;1.97;;;8.30;99.90;;;;;;4980624;28;20466;-68
2024/01/23 01:44:52;;;;;;;5.20;1.60;;;8.30;99.90;;;;;;4963175;28;20486;-68
2024/01/23 01:47:20;;;;;;;4.37;2.50;;;8.30;99.90;;;;;;4973961;28;20466;-69
2024/01/23 01:49:47;;;;;;;2.70;0.97;;;8.40;99.90;;;;;;4968275;28;20520;-68
2024/01/23 01:52:15;;;;;;;2.70;1.77;;;8.30;99.90;;;;;;4974345;28;20474;-69
2024/01/23 01:54:46;;;;;;;2.03;0.90;;;8.40;99.90;;;;;;4965883;28;20624;-69
2024/01/23 01:57:13;;;;;;;2.60;1.87;;;8.30;99.90;;;;;;4979137;28;20594;-69
2024/01/23 01:59:40;;;;;;;1.83;1.33;;;8.40;99.90;;;;;;4982633;28;20477;-69
2024/01/23 02:02:08;;;;;;;9.13;1.73;;;8.30;99.90;;;;;;4968993;28;20480;-69
2024/01/23 02:04:34;;;;;;;1.83;1.50;;;8.10;99.90;;;;;;4970556;28;20521;-68
2024/01/23 02:07:01;;;;;;;12.23;2.17;;;8.00;99.90;;;;;;4974077;28;20452;-68
2024/01/23 02:09:28;;;;;;;6.93;2.20;;;8.00;99.90;;;;;;4955029;28;20854;-67
2024/01/23 02:11:57;;;;;;;7.40;1.47;;;8.00;99.90;;;;;;4979540;28;20465;-69
2024/01/23 02:14:24;;;;;;;2.33;1.00;;;8.10;99.90;;;;;;4974421;28;20445;-69
2024/01/23 02:16:51;;;;;;;10.73;1.90;;;8.10;99.90;;;;;;4978254;28;20465;-67
2024/01/23 02:19:18;;;;;;;3.30;1.07;;;8.10;99.90;;;;;;4976580;28;20461;-68
2024/01/23 02:21:44;;;;;;;9.70;1.40;;;8.20;99.90;;;;;;4971895;28;20852;-69
2024/01/23 02:24:12;;;;;;;12.33;1.70;;;8.20;99.90;;;;;;4972792;28;22084;-68
2024/01/23 02:26:39;;;;;;;14.20;2.53;;;8.20;99.90;;;;;;4974996;28;20429;-68
2024/01/23 02:29:07;;;;;;;3.53;1.40;;;8.20;99.90;;;;;;4972114;28;20481;-69
2024/01/23 02:31:34;;;;;;;3.67;1.33;;;8.20;99.90;;;;;;4978919;28;20457;-68
2024/01/23 02:34:00;;;;;;;8.47;1.73;;;8.20;99.90;;;;;;4978549;28;20481;-68
2024/01/23 02:36:27;;;;;;;2.07;1.30;;;8.20;99.90;;;;;;4978072;28;20481;-69
2024/01/23 02:38:54;;;;;;;6.10;1.53;;;8.10;99.90;;;;;;4974158;28;20452;-68
2024/01/23 02:41:22;;;;;;;3.57;1.00;;;8.20;99.90;;;;;;4969317;28;20482;-69
2024/01/23 02:43:49;;;;;;;3.27;2.00;;;8.20;99.90;;;;;;4968691;28;20470;-69
2024/01/23 02:46:15;;;;;;;2.33;1.80;;;8.10;99.90;;;;;;4966521;28;20489;-69
2024/01/23 02:48:43;;;;;;;3.83;1.77;;;8.10;99.90;;;;;;4977948;28;20470;-69
2024/01/23 02:51:10;;;;;;;2.30;1.33;;;8.10;99.90;;;;;;4970436;28;20504;-69
2024/01/23 02:53:36;;;;;;;4.30;1.13;;;8.20;99.90;;;;;;4970115;28;20439;-68
2024/01/23 02:56:04;;;;;;;11.47;2.40;;;8.20;99.90;;;;;;4964896;28;20486;-69
2024/01/23 02:58:32;;;;;;;2.13;1.47;;;8.10;99.90;;;;;;4965917;28;20462;-69
2024/01/23 03:00:58;;;;;;;7.40;2.43;;;8.10;99.90;;;;;;4978447;28;20928;-68
2024/01/23 03:03:25;;;;;;;5.27;2.40;;;8.20;99.90;;;;;;4969102;28;20499;-67
2024/01/23 03:05:52;;;;;;;6.33;1.30;;;8.20;99.90;;;;;;4956123;28;20478;-69
2024/01/23 03:08:22;;;;;;;1.37;1.07;;;8.10;99.90;;;;;;4969185;28;20841;-69
2024/01/23 03:10:49;;;;;;;2.47;1.60;;;8.20;99.90;;;;;;4980128;28;20462;-69
2024/01/23 03:13:15;;;;;;;4.10;1.57;;;8.20;99.90;;;;;;4973412;28;20450;-68
2024/01/23 03:15:43;;;;;;;1.93;1.53;;;8.20;99.90;;;;;;4975862;28;20965;-68
2024/01/23 03:18:10;;;;;;;5.03;1.60;;;8.20;99.90;;;;;;4959920;28;20458;-68
2024/01/23 03:20:37;;;;;;;6.27;2.27;;;8.10;99.90;;;;;;4974496;28;20458;-68
2024/01/23 03:23:04;;;;;;;3.30;1.67;;;8.10;99.90;;;;;;4955016;28;20486;-68
2024/01/23 03:25:30;;;;;;;1.00;0.77;;;8.10;99.90;;;;;;4960305;28;20482;-68
2024/01/23 03:27:58;;;;;;;4.10;1.70;;;8.20;99.90;;;;;;4965014;28;20458;-69
2024/01/23 03:30:28;;;;;;;4.93;1.23;;;8.10;99.90;;;;;;4975508;28;20584;-69
2024/01/23 03:32:57;;;;;;;1.30;1.10;;;8.10;99.90;;;;;;4981046;28;20516;-68
2024/01/23 03:35:24;;;;;;;10.93;2.53;;;8.20;99.90;;;;;;4979629;28;20513;-68
2024/01/23 03:37:51;;;;;;;9.37;2.20;;;8.10;99.90;;;;;;4985439;28;20474;-67
2024/01/23 03:40:18;;;;;;;5.47;2.20;;;8.10;99.90;;;;;;4981595;28;20476;-68
2024/01/23 03:42:44;;;;;;;6.77;1.60;;;8.10;99.90;;;;;;4980493;28;21002;-68
2024/01/23 03:45:11;;;;;;;7.67;2.43;;;8.10;99.90;;;;;;4971968;28;20468;-68
2024/01/23 03:47:38;;;;;;;4.80;1.77;;;8.20;99.90;;;;;;4976383;28;20940;-68
2024/01/23 03:50:07;;;;;;;6.90;1.47;;;8.20;99.90;;;;;;4974525;28;20843;-68
2024/01/23 03:52:36;;;;;;;1.63;1.10;;;8.20;99.90;;;;;;4974967;28;20489;-70
2024/01/23 03:55:03;;;;;;;2.00;1.57;;;8.10;99.90;;;;;;4972243;28;20482;-70
2024/01/23 03:57:30;;;;;;;7.80;1.70;;;8.20;99.90;;;;;;4975669;28;20478;-69
2024/01/23 03:59:57;;;;;;;1.60;1.10;;;8.20;99.90;;;;;;4971950;28;20481;-69
2024/01/23 04:02:25;;;;;;;2.77;1.43;;;8.20;99.90;;;;;;4966221;28;20791;-69
2024/01/23 04:04:52;;;;;;;6.13;2.10;;;8.20;99.90;;;;;;4979822;28;20471;-68
2024/01/23 04:07:20;;;;;;;10.30;2.67;;;8.10;99.90;;;;;;4979585;28;20830;-69
2024/01/23 04:09:49;;;;;;;1.13;1.03;;;8.10;99.90;;;;;;4986890;28;21147;-68
2024/01/23 04:12:15;;;;;;;5.63;1.10;;;8.10;99.90;;;;;;4981720;28;20486;-69
2024/01/23 04:14:42;;;;;;;13.50;1.80;;;8.10;99.90;;;;;;4986358;28;20950;-69
2024/01/23 04:17:09;;;;;;;3.37;1.77;;;8.00;99.90;;;;;;4974783;28;20986;-68
2024/01/23 04:19:37;;;;;;;4.80;1.50;;;8.00;99.90;;;;;;4976735;28;20478;-69
2024/01/23 04:22:04;;;;;;;1.40;1.10;;;7.90;99.90;;;;;;4979715;28;20529;-69
2024/01/23 04:24:32;;;;;;;1.47;1.27;;;8.00;99.90;;;;;;4972614;28;20948;-68
2024/01/23 04:26:59;;;;;;;5.03;1.43;;;7.90;99.90;;;;;;4981331;28;20474;-68
2024/01/23 04:29:26;;;;;;;8.60;1.20;;;7.90;99.90;;;;;;4973152;28;20518;-68
2024/01/23 04:31:53;;;;;;;6.03;1.93;;;7.90;99.90;;;;;;4977435;28;20467;-68
2024/01/23 04:34:19;;;;;;;19.37;1.73;;;7.80;99.90;;;;;;4977465;28;20466;-67
2024/01/23 04:36:46;;;;;;;9.03;2.10;;;7.90;99.90;;;;;;4976591;28;20541;-68
2024/01/23 04:39:13;;;;;;;1.63;1.53;;;7.90;99.90;;;;;;4978986;28;20466;-68
2024/01/23 04:41:41;;;;;;;5.70;2.07;;;7.90;99.90;;;;;;4976427;28;20461;-68
2024/01/23 04:44:08;;;;;;;3.03;1.07;;;7.80;99.90;;;;;;4980689;28;20509;-68
2024/01/23 04:46:34;;;;;;;4.13;1.50;;;7.90;99.90;;;;;;4976645;28;20482;-68
2024/01/23 04:49:01;;;;;;;2.70;1.70;;;7.90;99.90;;;;;;4984164;28;20956;-68
2024/01/23 04:51:29;;;;;;;3.23;1.27;;;7.80;99.90;;;;;;4982028;28;21049;-68
2024/01/23 04:53:56;;;;;;;9.30;1.83;;;7.80;99.90;;;;;;4982511;28;20456;-69
2024/01/23 04:56:25;;;;;;;2.03;1.30;;;7.80;99.90;;;;;;4976369;28;21001;-68
2024/01/23 04:58:53;;;;;;;5.13;1.67;;;7.70;99.90;;;;;;4981124;28;20814;-68
2024/01/23 05:01:20;;;;;;;8.97;1.60;;;7.70;99.90;;;;;;4979707;28;20920;-68
2024/01/23 05:03:47;;;;;;;9.60;1.43;;;7.60;99.90;;;;;;4977348;28;20560;-68
2024/01/23 05:06:14;;;;;;;1.10;0.80;;;7.50;99.90;;;;;;4982693;28;20470;-69
2024/01/23 05:08:41;;;;;;;7.50;1.57;;;7.40;99.90;;;;;;4985087;28;20458;-69
2024/01/23 05:11:08;;;;;;;7.70;1.63;;;7.40;99.90;;;;;;4984523;28;20446;-69
2024/01/23 05:13:35;;;;;;;3.77;2.30;;;7.40;99.90;;;;;;4977070;28;20548;-69
2024/01/23 05:16:03;;;;;;;4.40;1.40;;;7.40;99.90;;;;;;4972052;28;21545;-69
2024/01/23 05:18:30;;;;;;;4.07;0.90;;;7.40;99.90;;;;;;4979488;28;20433;-69
2024/01/23 05:20:56;;;;;;;1.10;1.00;;;7.30;99.90;;;;;;4980862;28;20435;-69
2024/01/23 05:23:24;;;;;;;3.00;2.13;;;7.30;99.90;;;;;;4977511;28;20457;-69
2024/01/23 05:25:51;;;;;;;1.00;0.80;;;7.30;99.90;;;;;;4974217;28;20472;-69
2024/01/23 05:28:17;;;;;;;7.90;1.83;;;7.40;99.90;;;;;;4973250;28;20470;-70
2024/01/23 05:30:44;;;;;;;1.70;1.10;;;7.40;99.90;;;;;;4977896;28;20450;-68
2024/01/23 05:33:12;;;;;;;2.83;1.30;;;7.40;99.90;;;;;;4977105;28;20426;-68
2024/01/23 05:35:39;;;;;;;6.33;1.47;;;7.50;99.90;;;;;;4980621;28;20589;-68
2024/01/23 05:38:06;;;;;;;3.77;1.60;;;7.60;99.90;;;;;;4977294;28;20485;-67
2024/01/23 05:40:33;;;;;;;38.80;4.30;;;7.60;99.90;;;;;;4978883;28;20498;-70
2024/01/23 05:43:00;;;;;;;1.67;1.30;;;7.60;99.90;;;;;;4975642;28;20448;-70
2024/01/23 05:45:27;;;;;;;3.50;1.13;;;7.60;99.90;;;;;;4976012;28;20489;-69
2024/01/23 05:47:54;;;;;;;6.37;1.40;;;7.60;99.90;;;;;;4969634;28;20443;-68
2024/01/23 05:50:22;;;;;;;2.63;1.70;;;7.60;99.90;;;;;;4976533;28;20474;-69
2024/01/23 05:52:49;;;;;;;2.93;1.60;;;7.60;99.90;;;;;;4978041;28;20485;-69
2024/01/23 05:55:15;;;;;;;0.90;0.60;;;7.60;99.90;;;;;;4977341;28;20478;-69
2024/01/23 05:57:42;;;;;;;2.20;1.57;;;7.50;99.90;;;;;;4980001;28;20466;-69
2024/01/23 06:00:13;;;;;;;8.57;1.47;;;7.50;99.90;;;;;;4981032;28;20441;-70
2024/01/23 06:02:40;;;;;;;3.97;1.80;;;7.50;99.90;;;;;;4980106;28;20482;-70
2024/01/23 06:05:08;;;;;;;3.60;1.33;;;7.60;99.90;;;;;;4975054;28;20479;-69
2024/01/23 06:07:40;;;;;;;1.93;1.33;;;7.50;99.90;;;;;;4975593;28;20836;-70
2024/01/23 06:10:09;;;;;;;7.50;1.80;;;7.50;99.90;;;;;;4981236;28;20904;-68
2024/01/23 06:12:36;;;;;;;4.10;1.00;;;7.40;99.90;;;;;;4975808;28;20887;-69
2024/01/23 06:15:03;;;;;;;4.40;1.20;;;7.40;99.90;;;;;;4977602;28;20486;-68
2024/01/23 06:17:30;;;;;;;4.10;1.67;;;7.30;99.90;;;;;;4978706;28;21050;-68
2024/01/23 06:19:57;;;;;;;10.17;2.80;;;7.30;99.90;;;;;;4975831;28;20687;-68
2024/01/23 06:22:24;;;;;;;2.20;1.63;;;7.30;99.90;;;;;;4978226;28;20556;-68
2024/01/23 06:25:02;;;;;;;12.60;2.93;;;7.30;99.90;;;;;;4978781;28;20497;-69
2024/01/23 06:27:29;;;;;;;7.03;1.50;;;7.20;99.90;;;;;;4980509;28;20962;-68
2024/01/23 06:29:56;;;;;;;4.30;1.50;;;7.20;99.90;;;;;;4976758;28;20462;-68
2024/01/23 06:32:23;;;;;;;4.67;2.17;;;7.30;99.90;;;;;;4974646;28;20469;-68
2024/01/23 06:34:50;;;;;;;2.77;1.73;;;7.30;99.90;;;;;;4982905;28;20657;-68
2024/01/23 06:37:16;;;;;;;5.23;1.63;;;7.30;99.90;;;;;;4980301;28;20469;-70
2024/01/23 06:39:43;;;;;;;3.10;2.30;;;7.50;99.90;;;;;;4986409;28;20531;-69
2024/01/23 06:42:12;;;;;;;2.23;1.07;;;7.50;99.90;;;;;;4981656;28;20466;-68
2024/01/23 06:44:39;;;;;;;8.53;2.27;;;7.60;99.90;;;;;;4982788;28;20457;-68
2024/01/23 06:47:06;;;;;;;10.13;2.77;;;7.50;99.90;;;;;;4981046;28;20527;-68
2024/01/23 06:49:33;;;;;;;5.47;2.70;;;7.50;99.90;;;;;;4984037;28;20469;-68
2024/01/23 06:52:00;;;;;;;2.40;1.93;;;7.50;99.90;;;;;;4986748;28;20465;-68
2024/01/23 06:54:27;;;;;;;13.83;2.70;;;7.50;99.90;;;;;;5013770;23;20454;-68
2024/01/23 06:56:54;;;;;;;6.97;1.30;;;7.50;99.90;;;;;;4977627;28;20452;-67
2024/01/23 06:59:22;;;;;;;6.87;2.00;;;7.50;99.90;;;;;;4984027;28;20983;-68
2024/01/23 07:01:49;;;;;;;1.40;1.27;;;7.60;99.90;;;;;;4983963;28;20991;-68
2024/01/23 07:04:16;;;;;;;3.27;1.90;;;7.40;99.90;;;;;;4981216;28;20483;-69
2024/01/23 07:06:42;;;;;;;14.97;3.03;;;7.50;99.90;;;;;;4989320;28;22439;-68
2024/01/23 07:09:09;;;;;;;2.83;1.67;;;7.50;99.90;;;;;;4977626;28;20463;-68
2024/01/23 07:11:39;;;;;;;8.60;2.80;;;7.50;99.90;;;;;;4978441;28;20466;-68
2024/01/23 07:14:06;;;;;;;19.97;4.20;;;7.50;99.90;;;;;;4981277;28;20489;-68
2024/01/23 07:16:34;;;;;;;2.33;2.13;;;7.50;99.90;;;;;;4982223;28;20482;-68
2024/01/23 07:19:01;;;;;;;6.47;2.27;;;7.40;99.90;;;;;;4986075;28;20437;-68
2024/01/23 07:21:28;;;;;;;1.97;1.77;;;7.40;99.90;;;;;;4976349;28;20462;-68
2024/01/23 07:23:55;;;;;;;4.07;2.00;;;7.40;99.90;;;;;;4977640;28;20470;-68
2024/01/23 07:26:22;;;;;;;4.93;1.63;;;7.40;99.90;;;;;;4977370;28;20486;-68
2024/01/23 07:28:49;;;;;;;3.93;1.80;;;7.30;99.90;;;;;;4982985;28;20473;-68
2024/01/23 07:31:15;;;;;;;1.30;1.00;;;7.30;99.90;;;;;;4984047;28;20470;-68
2024/01/23 07:33:43;;;;;;;5.93;2.93;;;7.30;99.90;;;;;;4979314;28;20495;-68
2024/01/23 07:36:10;;;;;;;4.57;2.07;;;7.30;99.90;;;;;;4980450;28;20478;-68
2024/01/23 07:38:37;;;;;;;4.30;1.03;;;7.30;99.90;;;;;;4976338;28;20472;-68
2024/01/23 07:41:04;;;;;;;2.80;1.77;;;7.30;99.90;;;;;;4978342;28;20907;-68
2024/01/23 07:43:30;;;;;;;19.70;3.30;;;7.30;99.90;;;;;;4977808;28;20455;-68
2024/01/23 07:45:57;;;;;;;4.53;1.23;;;7.30;99.90;;;;;;4978354;28;20459;-68
2024/01/23 07:48:24;;;;;;;7.37;2.90;;;7.30;99.90;;;;;;4982284;28;20448;-68
2024/01/23 07:50:52;;;;;;;2.13;1.93;;;7.30;99.90;;;;;;4982009;28;20461;-68
2024/01/23 07:53:18;;;;;;;4.23;2.83;;;7.40;99.90;;;;;;4981086;28;20566;-68
2024/01/23 07:55:45;;;;;;;2.13;1.60;;;7.40;99.90;;;;;;4985934;28;20448;-68
2024/01/23 07:58:12;;;;;;;5.23;1.60;;;7.30;99.90;;;;;;4980828;28;20222;-68
2024/01/23 08:00:39;;;;;;;4.47;1.70;;;7.30;99.90;;;;;;4987439;28;20441;-68
2024/01/23 08:03:07;;;;;;;10.13;1.60;;;7.30;99.90;;;;;;4982118;28;20430;-68
2024/01/23 08:05:34;;;;;;;4.60;3.63;;;7.20;99.90;;;;;;4986566;28;20551;-68
2024/01/23 08:08:03;;;;;;;1.37;1.27;;;7.30;99.90;;;;;;4981511;28;21006;-68
2024/01/23 08:10:31;;;;;;;16.13;3.07;;;7.20;99.90;;;;;;4985501;28;20521;-68
2024/01/23 08:13:00;;;;;;;5.37;1.40;;;7.20;99.90;;;;;;4987172;28;20577;-68
2024/01/23 08:15:27;;;;;;;3.00;2.00;;;7.20;99.90;;;;;;4976249;28;20548;-68
2024/01/23 08:17:55;;;;;;;4.70;1.67;;;7.20;99.90;;;;;;4977804;28;20476;-68
2024/01/23 08:20:21;;;;;;;2.77;1.80;;;7.30;99.90;;;;;;4981620;28;20482;-68
2024/01/23 08:22:48;;;;;;;4.10;1.00;;;7.30;99.90;;;;;;4981845;28;20441;-68
2024/01/23 08:25:16;;;;;;;8.00;1.70;;;7.30;99.90;;;;;;4975815;28;20834;-68
2024/01/23 08:27:43;;;;;;;5.37;2.70;;;7.30;99.90;;;;;;4980170;28;20454;-68
2024/01/23 08:30:11;;;;;;;2.67;1.10;;;7.30;99.90;;;;;;4972722;28;20487;-68
2024/01/23 08:32:38;;;;;;;4.70;2.77;;;7.40;99.90;;;;;;4975429;28;20468;-68
2024/01/23 08:35:06;;;;;;;1.70;1.30;;;7.50;99.90;;;;;;4978319;28;20631;-68
2024/01/23 08:37:33;;;;;;;16.33;1.77;;;7.60;99.90;;;;;;4983341;28;20824;-67
2024/01/23 08:39:59;;;;;;;5.97;1.53;;;7.70;99.90;;;;;;4977572;28;21061;-68
2024/01/23 08:42:28;;;;;;;5.77;2.57;;;7.60;99.90;;;;;;4979476;28;20561;-67
2024/01/23 08:44:55;;;;;;;6.33;2.50;;;7.60;99.90;;;;;;4972926;28;20607;-67
2024/01/23 08:47:22;;;;;;;4.93;2.07;;;7.60;99.90;;;;;;4983085;28;20452;-67
2024/01/23 08:49:49;;;;;;;3.57;2.20;;;7.80;99.90;;;;;;4980455;28;20790;-69
2024/01/23 08:52:16;;;;;;;2.30;1.93;;;8.10;99.90;;;;;;4986006;28;20461;-68
2024/01/23 08:54:43;;;;;;;1.87;1.13;;;8.20;99.90;;;;;;4979088;28;20498;-68
2024/01/23 08:57:10;;;;;;;2.90;1.43;;;8.30;99.90;;;;;;4985260;28;20795;-68
2024/01/23 08:59:40;;;;;;;12.23;2.83;;;8.40;99.90;;;;;;4981930;28;20466;-68
2024/01/23 09:02:07;;;;;;;2.37;1.63;;;8.90;99.90;;;;;;4980194;28;20458;-68
2024/01/23 09:04:34;;;;;;;15.80;3.70;;;9.20;99.90;;;;;;4982640;28;20487;-68
2024/01/23 09:07:01;;;;;;;6.07;3.27;;;9.50;99.90;;;;;;4981439;28;20458;-69
2024/01/23 09:09:28;;;;;;;10.93;3.83;;;9.70;99.90;;;;;;4985692;28;20461;-68
2024/01/23 09:11:55;;;;;;;5.50;2.17;;;10.00;99.90;;;;;;4985216;28;20508;-69
2024/01/23 09:14:21;;;;;;;1.40;1.20;;;10.30;99.90;;;;;;4984329;28;20489;-69
2024/01/23 09:16:50;;;;;;;17.27;2.07;;;10.30;99.90;;;;;;4979661;28;20831;-67
2024/01/23 09:19:17;;;;;;;3.53;1.20;;;10.00;99.90;;;;;;4977800;28;20507;-68
2024/01/23 09:21:44;;;;;;;12.13;4.83;;;9.40;99.90;;;;;;4973747;28;20470;-68
2024/01/23 09:24:10;;;;;;;4.43;2.33;;;9.20;99.90;;;;;;4972420;28;20445;-68
2024/01/23 09:26:38;;;;;;;6.30;2.40;;;9.10;99.90;;;;;;4980585;28;20517;-68
2024/01/23 09:29:05;;;;;;;1.73;1.10;;;9.40;99.90;;;;;;4980905;28;20440;-68
2024/01/23 09:31:32;;;;;;;12.77;2.30;;;9.90;99.90;;;;;;4981385;28;20940;-67
2024/01/23 09:34:01;;;;;;;3.80;1.70;;;10.30;99.90;;;;;;4978664;28;20486;-68
2024/01/23 09:36:28;;;;;;;3.43;2.03;;;10.40;99.90;;;;;;4976625;28;20486;-68
2024/01/23 09:38:54;;;;;;;4.87;2.73;;;10.40;99.90;;;;;;4977880;28;20469;-68
2024/01/23 09:41:23;;;;;;;7.90;3.90;;;10.20;99.90;;;;;;4979552;28;20988;-67
2024/01/23 09:43:51;;;;;;;8.20;2.20;;;10.20;99.90;;;;;;4979490;28;20470;-68
2024/01/23 09:46:18;;;;;;;5.73;1.83;;;9.90;99.90;;;;;;4974670;28;20607;-67
2024/01/23 09:48:47;;;;;;;1.53;1.33;;;9.60;99.90;;;;;;4975192;28;20454;-67
2024/01/23 09:51:15;;;;;;;4.50;2.17;;;9.30;99.90;;;;;;4978600;28;20616;-68
2024/01/23 09:53:43;;;;;;;18.67;2.07;;;9.10;99.90;;;;;;4978097;28;20528;-68
2024/01/23 09:56:11;;;;;;;4.47;2.10;;;9.20;99.90;;;;;;4972183;28;20490;-67
2024/01/23 09:58:38;;;;;;;4.90;2.30;;;9.20;99.90;;;;;;4981762;28;20462;-67
2024/01/23 10:01:06;;;;;;;2.97;2.40;;;9.30;99.90;;;;;;4990907;28;20453;-68
2024/01/23 10:03:34;;;;;;;12.50;2.00;;;9.20;99.90;;;;;;4970266;28;20458;-67
2024/01/23 10:06:00;;;;;;;4.33;2.10;;;9.40;99.90;;;;;;4971619;28;20482;-68
2024/01/23 10:08:29;;;;;;;5.63;2.70;;;10.10;99.90;;;;;;4973746;28;20466;-67
2024/01/23 10:11:00;;;;;;;5.27;2.47;;;10.80;99.90;;;;;;4973887;28;20458;-67
2024/01/23 10:13:26;;;;;;;8.83;2.93;;;11.30;99.90;;;;;;4982705;28;20459;-67
2024/01/23 10:15:54;;;;;;;13.23;2.47;;;11.00;99.90;;;;;;4978862;28;20485;-67
2024/01/23 10:18:22;;;;;;;10.80;3.13;;;10.80;99.90;;;;;;4978375;28;20476;-67
2024/01/23 10:20:49;;;;;;;4.30;1.53;;;10.40;99.90;;;;;;4976619;28;20473;-67
2024/01/23 10:23:16;;;;;;;3.10;1.87;;;10.40;99.90;;;;;;4974598;28;20473;-67
2024/01/23 10:25:44;;;;;;;4.13;2.03;;;10.40;99.90;;;;;;4979001;28;20485;-67
2024/01/23 10:28:13;;;;;;;6.70;1.63;;;10.60;99.90;;;;;;4978670;28;20462;-69
2024/01/23 10:30:43;;;;;;;3.00;1.50;;;10.30;99.90;;;;;;4982656;28;20553;-68
2024/01/23 10:33:11;;;;;;;3.33;2.10;;;10.10;99.90;;;;;;4982287;28;20555;-68
2024/01/23 10:35:38;;;;;;;4.83;2.03;;;9.90;99.90;;;;;;4977877;28;20497;-68
2024/01/23 10:38:06;;;;;;;8.87;2.60;;;9.80;99.90;;;;;;4979719;28;20469;-68
2024/01/23 10:40:33;;;;;;;5.70;2.23;;;9.60;99.90;;;;;;4980754;28;20508;-69
2024/01/23 10:43:07;;;;;;;6.00;1.63;;;9.80;99.90;;;;;;4977456;28;20470;-68
2024/01/23 10:45:35;;;;;;;4.33;2.20;;;10.10;99.90;;;;;;4981602;28;21198;-69
2024/01/23 10:48:02;;;;;;;15.33;2.40;;;10.40;99.90;;;;;;4985634;28;20903;-68
2024/01/23 10:50:30;;;;;;;4.53;2.20;;;10.70;99.90;;;;;;4988255;28;20462;-68
2024/01/23 10:53:03;;;;;;;3.63;2.23;;;11.10;99.90;;;;;;4986989;28;20425;-68
2024/01/23 10:55:32;;;;;;;12.33;2.13;;;11.50;99.90;;;;;;4986155;28;20980;-68
2024/01/23 10:58:03;;;;;;;3.80;2.67;;;11.40;99.90;;;;;;4983503;28;20459;-67
2024/01/23 11:00:32;;;;;;;4.97;2.00;;;11.70;99.90;;;;;;4984705;28;20450;-67
2024/01/23 11:03:00;;;;;;;9.60;2.33;;;12.30;99.90;;;;;;4985435;28;20450;-67
2024/01/23 11:05:32;;;;;;;5.53;2.20;;;12.80;99.90;;;;;;4984843;28;20466;-67
2024/01/23 11:08:07;;;;;;;4.03;1.60;;;12.60;99.90;;;;;;4980943;28;20965;-66
2024/01/23 11:10:39;;;;;;;3.00;1.90;;;12.30;99.90;;;;;;4987092;28;20614;-67
2024/01/23 11:13:14;;;;;;;7.47;2.43;;;12.10;99.90;;;;;;4981602;28;20469;-67
2024/01/23 11:15:41;;;;;;;7.93;1.70;;;12.40;99.90;;;;;;4990179;28;20540;-67
2024/01/23 11:18:28;;;;;;;10.13;2.63;;;12.90;99.90;;;;;;4980747;28;20476;-67
2024/01/23 11:21:17;;;;;;;4.10;1.73;;;13.10;99.90;;;;;;4979247;28;20463;-67
2024/01/23 11:23:45;;;;;;;3.87;2.70;;;13.40;99.90;;;;;;4972423;28;21211;-67
2024/01/23 11:26:16;;;;;;;15.53;2.97;;;13.00;99.90;;;;;;4972183;28;20516;-67
2024/01/23 11:28:46;;;;;;;8.73;2.83;;;13.20;99.90;;;;;;4984011;28;20493;-67
2024/01/23 11:31:15;;;;;;;6.83;2.17;;;13.60;99.90;;;;;;4980576;28;20811;-67
2024/01/23 11:33:42;;;;;;;6.23;2.00;;;13.80;99.90;;;;;;4975139;28;20485;-67
2024/01/23 11:36:10;;;;;;;5.23;1.57;;;13.80;99.90;;;;;;4974695;28;21137;-67
2024/01/23 11:38:44;;;;;;;9.70;4.43;;;13.20;99.90;;;;;;4981150;28;20506;-67
2024/01/23 11:41:21;;;;;;;2.70;1.83;;;12.80;99.90;;;;;;4981428;28;20462;-68
2024/01/23 11:43:50;;;;;;;7.83;2.40;;;12.80;99.90;;;;;;4980098;28;20466;-67
2024/01/23 11:46:21;;;;;;;3.83;2.00;;;12.40;99.90;;;;;;4979970;28;20486;-67
2024/01/23 11:48:50;;;;;;;10.90;2.67;;;12.10;99.90;;;;;;4974285;28;20968;-67
2024/01/23 11:51:17;;;;;;;4.67;2.83;;;11.80;99.90;;;;;;4980801;28;20550;-67
2024/01/23 11:53:46;;;;;;;8.23;3.17;;;11.90;99.90;;;;;;4977606;28;20972;-68
2024/01/23 11:56:14;;;;;;;3.90;2.33;;;11.80;99.90;;;;;;4976204;28;20496;-67
2024/01/23 11:58:42;;;;;;;8.23;5.40;;;12.30;99.90;;;;;;4981852;28;20944;-67
2024/01/23 12:01:13;;;;;;;14.17;4.57;;;12.10;99.90;;;;;;4982027;28;20506;-67
2024/01/23 12:03:47;;;;;;;3.83;2.33;;;12.00;99.90;;;;;;4972563;28;21094;-67
2024/01/23 12:06:13;;;;;;;5.87;2.47;;;12.40;99.90;;;;;;4981112;28;20474;-67
2024/01/23 12:08:40;;;;;;;6.00;2.40;;;12.40;99.90;;;;;;4977822;28;20480;-67
2024/01/23 12:11:08;;;;;;;5.40;2.23;;;12.10;99.90;;;;;;4979373;28;20835;-67
2024/01/23 12:13:34;;;;;;;4.30;2.37;;;12.30;99.90;;;;;;4986841;28;21047;-67
2024/01/23 12:16:06;;;;;;;9.37;2.27;;;12.40;99.90;;;;;;4971014;28;20482;-67
2024/01/23 12:18:34;;;;;;;7.83;2.93;;;12.20;99.90;;;;;;4975340;28;20482;-67
2024/01/23 12:21:03;;;;;;;7.83;2.83;;;11.90;99.90;;;;;;4977934;28;20468;-67
2024/01/23 12:23:30;;;;;;;3.53;1.83;;;12.20;99.90;;;;;;4977319;28;21249;-67
2024/01/23 12:25:57;;;;;;;6.50;1.97;;;12.90;99.90;;;;;;4974927;28;20882;-68
2024/01/23 12:28:24;;;;;;;5.60;2.40;;;13.10;99.90;;;;;;4982314;28;20525;-68
2024/01/23 12:30:51;;;;;;;5.03;2.57;;;13.20;99.90;;;;;;4978591;28;20546;-68
2024/01/23 12:33:18;;;;;;;7.00;2.37;;;13.10;99.90;;;;;;4983701;28;20833;-68
2024/01/23 12:35:48;;;;;;;5.20;3.13;;;12.80;99.90;;;;;;4974097;28;20477;-68
2024/01/23 12:38:15;;;;;;;2.77;2.57;;;12.60;99.90;;;;;;4979462;28;20831;-68
2024/01/23 12:40:42;;;;;;;6.83;2.30;;;12.20;99.90;;;;;;4975960;28;20465;-68
2024/01/23 12:43:09;;;;;;;6.40;3.40;;;11.90;99.90;;;;;;4984643;28;20801;-68
2024/01/23 12:45:36;;;;;;;12.50;2.40;;;12.00;99.90;;;;;;4980998;28;20478;-68
2024/01/23 12:48:03;;;;;;;10.03;2.40;;;12.00;99.90;;;;;;4973757;28;20819;-68
2024/01/23 12:50:31;;;;;;;5.30;1.87;;;12.20;99.90;;;;;;4977978;28;20446;-68
2024/01/23 12:52:59;;;;;;;9.33;3.70;;;11.90;99.90;;;;;;4984288;28;20458;-68
2024/01/23 12:55:28;;;;;;;12.60;2.50;;;12.00;99.90;;;;;;4985439;28;20496;-68